createdAt,value
2023-03-18T00:00:02.321Z,21.56
2023-03-18T00:03:11.662Z,21.54
2023-03-18T00:06:16.752Z,21.54
2023-03-18T00:09:19.515Z,21.53
2023-03-18T00:12:22.385Z,21.53
2023-03-18T00:15:25.221Z,21.52
2023-03-18T00:18:29.522Z,21.53
2023-03-18T00:21:32.825Z,21.52
2023-03-18T00:24:35.869Z,21.50
2023-03-18T00:27:39.893Z,21.49
2023-03-18T00:30:43.089Z,21.48
2023-03-18T00:33:47.917Z,21.48
2023-03-18T00:36:56.980Z,21.46
2023-03-18T00:40:04.724Z,21.45
2023-03-18T00:43:08.799Z,21.44
2023-03-18T00:46:11.762Z,21.43
2023-03-18T00:49:17.761Z,21.43
2023-03-18T00:52:20.577Z,21.44
2023-03-18T00:55:23.543Z,21.42
2023-03-18T00:58:27.040Z,21.41
2023-03-18T01:01:29.981Z,21.40
2023-03-18T01:04:36.431Z,21.40
2023-03-18T01:07:39.236Z,21.38
2023-03-18T01:10:42.169Z,21.37
2023-03-18T01:13:46.450Z,21.36
2023-03-18T01:16:49.262Z,21.36
2023-03-18T01:19:54.026Z,21.36
2023-03-18T01:22:59.609Z,21.34
2023-03-18T01:26:03.609Z,21.34
2023-03-18T01:29:07.780Z,21.35
2023-03-18T01:32:10.876Z,21.36
2023-03-18T01:35:15.152Z,21.35
2023-03-18T01:38:22.804Z,21.35
2023-03-18T01:41:26.775Z,21.33
2023-03-18T01:44:30.890Z,21.32
2023-03-18T01:47:35.221Z,21.32
2023-03-18T01:50:39.798Z,21.31
2023-03-18T01:53:47.246Z,21.31
2023-03-18T01:56:51.864Z,21.30
2023-03-18T01:59:57.330Z,21.29
2023-03-18T02:03:01.091Z,21.28
2023-03-18T02:06:05.839Z,21.29
2023-03-18T02:09:09.052Z,21.30
2023-03-18T02:12:14.367Z,21.29
2023-03-18T02:15:21.320Z,21.28
2023-03-18T02:18:30.104Z,21.28
2023-03-18T02:21:46.398Z,21.27
2023-03-18T02:24:56.537Z,21.26
2023-03-18T02:28:04.251Z,21.25
2023-03-18T02:31:14.087Z,21.25
2023-03-18T02:34:19.812Z,21.24
2023-03-18T02:37:24.117Z,21.24
2023-03-18T02:40:29.804Z,21.23
2023-03-18T02:43:34.721Z,21.24
2023-03-18T02:46:50.919Z,21.24
2023-03-18T02:49:54.868Z,21.23
2023-03-18T02:52:58.647Z,21.24
2023-03-18T02:56:01.738Z,21.23
2023-03-18T02:59:07.390Z,21.22
2023-03-18T03:02:10.697Z,21.22
2023-03-18T03:05:13.856Z,21.22
2023-03-18T03:08:17.004Z,21.21
2023-03-18T03:11:23.679Z,21.21
2023-03-18T03:14:30.277Z,21.21
2023-03-18T03:17:36.895Z,21.20
2023-03-18T03:20:40.228Z,21.22
2023-03-18T03:23:43.052Z,21.21
2023-03-18T03:26:45.909Z,21.21
2023-03-18T03:29:50.087Z,21.20
2023-03-18T03:32:54.907Z,21.20
2023-03-18T03:35:58.778Z,21.21
2023-03-18T03:39:02.231Z,21.21
2023-03-18T03:42:05.247Z,21.21
2023-03-18T03:45:11.292Z,21.22
2023-03-18T03:48:14.458Z,21.23
2023-03-18T03:51:17.616Z,21.25
2023-03-18T03:54:20.905Z,21.27
2023-03-18T03:57:24.107Z,21.29
2023-03-18T04:00:28.927Z,21.30
2023-03-18T04:03:31.972Z,21.32
2023-03-18T04:06:35.153Z,21.32
2023-03-18T04:09:38.240Z,21.34
2023-03-18T04:12:41.693Z,21.35
2023-03-18T04:15:47.539Z,21.35
2023-03-18T04:18:54.380Z,21.38
2023-03-18T04:21:59.229Z,21.38
2023-03-18T04:25:02.150Z,21.38
2023-03-18T04:28:05.593Z,21.39
2023-03-18T04:31:10.479Z,21.40
2023-03-18T04:34:13.998Z,21.40
2023-03-18T04:37:20.023Z,21.41
2023-03-18T04:40:26.561Z,21.41
2023-03-18T04:43:30.127Z,21.42
2023-03-18T04:46:34.715Z,21.42
2023-03-18T04:49:38.713Z,21.41
2023-03-18T04:52:43.669Z,21.41
2023-03-18T04:55:50.664Z,21.42
2023-03-18T04:58:55.071Z,21.42
2023-03-18T05:02:05.245Z,21.42
2023-03-18T05:05:10.546Z,21.41
2023-03-18T05:08:18.279Z,21.42
2023-03-18T05:11:22.540Z,21.41
2023-03-18T05:14:25.661Z,21.42
2023-03-18T05:17:31.542Z,21.41
2023-03-18T05:20:38.260Z,21.41
2023-03-18T05:23:41.961Z,21.40
2023-03-18T05:26:45.010Z,21.40
2023-03-18T05:29:49.249Z,21.39
2023-03-18T05:33:01.590Z,21.38
2023-03-18T05:36:16.804Z,21.37
2023-03-18T05:39:35.252Z,21.37
2023-03-18T05:42:54.912Z,21.37
2023-03-18T05:46:01.344Z,21.37
2023-03-18T05:49:23.264Z,21.36
2023-03-18T05:52:44.459Z,21.36
2023-03-18T05:55:54.354Z,21.35
2023-03-18T05:58:57.650Z,21.34
2023-03-18T06:02:18.775Z,21.35
2023-03-18T06:05:24.426Z,21.35
2023-03-18T06:08:27.522Z,21.35
2023-03-18T06:11:31.183Z,21.35
2023-03-18T06:14:34.339Z,21.36
2023-03-18T06:17:39.003Z,21.36
2023-03-18T06:20:44.944Z,21.36
2023-03-18T06:23:48.087Z,21.37
2023-03-18T06:26:51.746Z,21.37
2023-03-18T06:29:55.780Z,21.35
2023-03-18T06:32:58.822Z,21.34
2023-03-18T06:36:04.568Z,21.34
2023-03-18T06:39:07.456Z,21.33
2023-03-18T06:42:13.148Z,21.33
2023-03-18T06:45:23.533Z,21.33
2023-03-18T06:48:34.176Z,21.33
2023-03-18T06:51:38.390Z,21.33
2023-03-18T06:54:42.040Z,21.35
2023-03-18T06:57:45.780Z,21.35
2023-03-18T07:00:51.470Z,21.35
2023-03-18T07:04:00.523Z,21.34
2023-03-18T07:07:07.181Z,21.35
2023-03-18T07:10:19.031Z,21.35
2023-03-18T07:13:22.736Z,21.35
2023-03-18T07:16:26.446Z,21.35
2023-03-18T07:19:29.912Z,21.34
2023-03-18T07:22:34.612Z,21.34
2023-03-18T07:25:37.539Z,21.34
2023-03-18T07:28:40.632Z,21.35
2023-03-18T07:31:43.885Z,21.35
2023-03-18T07:34:48.052Z,21.35
2023-03-18T07:37:52.468Z,21.36
2023-03-18T07:40:56.301Z,21.35
2023-03-18T07:43:59.444Z,21.35
2023-03-18T07:47:02.362Z,21.36
2023-03-18T07:50:05.694Z,21.37
2023-03-18T07:53:10.640Z,21.36
2023-03-18T07:56:13.712Z,21.37
2023-03-18T07:59:18.669Z,21.36
2023-03-18T08:02:21.792Z,21.36
2023-03-18T08:05:25.366Z,21.34
2023-03-18T08:08:29.710Z,21.29
2023-03-18T08:11:33.125Z,21.24
2023-03-18T08:14:36.691Z,21.17
2023-03-18T08:17:40.188Z,21.12
2023-03-18T08:20:43.040Z,21.07
2023-03-18T08:23:47.688Z,21.05
2023-03-18T08:26:50.528Z,21.02
2023-03-18T08:29:53.439Z,20.99
2023-03-18T08:32:57.416Z,20.95
2023-03-18T08:36:00.467Z,20.95
2023-03-18T08:39:05.863Z,20.94
2023-03-18T08:42:08.757Z,20.92
2023-03-18T08:45:13.333Z,20.90
2023-03-18T08:48:16.195Z,20.89
2023-03-18T08:51:19.104Z,20.89
2023-03-18T08:54:23.468Z,20.89
2023-03-18T08:57:27.743Z,20.88
2023-03-18T09:00:30.563Z,20.87
2023-03-18T09:03:33.688Z,20.86
2023-03-18T09:06:36.699Z,20.86
2023-03-18T09:09:43.955Z,20.85
2023-03-18T09:12:47.977Z,20.82
2023-03-18T09:15:51.016Z,20.81
2023-03-18T09:18:53.890Z,20.82
2023-03-18T09:21:57.247Z,20.83
2023-03-18T09:25:01.475Z,20.83
2023-03-18T09:28:04.424Z,20.82
2023-03-18T09:31:07.407Z,20.80
2023-03-18T09:34:13.424Z,20.81
2023-03-18T09:37:16.399Z,20.81
2023-03-18T09:40:27.343Z,20.81
2023-03-18T09:43:51.661Z,20.80
2023-03-18T09:47:13.022Z,20.79
2023-03-18T09:50:29.128Z,20.80
2023-03-18T09:53:41.308Z,20.82
2023-03-18T09:56:47.074Z,20.83
2023-03-18T09:59:54.713Z,20.85
2023-03-18T10:03:05.849Z,20.88
2023-03-18T10:06:18.076Z,20.90
2023-03-18T10:09:26.260Z,20.91
2023-03-18T10:12:35.643Z,20.93
2023-03-18T10:15:51.111Z,20.94
2023-03-18T10:18:54.627Z,20.95
2023-03-18T10:22:16.352Z,20.95
2023-03-18T10:25:27.108Z,20.97
2023-03-18T10:29:03.910Z,20.98
2023-03-18T10:32:18.662Z,20.99
2023-03-18T10:35:31.105Z,20.99
2023-03-18T10:38:38.787Z,21.02
2023-03-18T10:41:43.411Z,21.04
2023-03-18T10:44:48.679Z,21.05
2023-03-18T10:47:59.820Z,21.06
2023-03-18T10:51:13.682Z,21.07
2023-03-18T10:54:23.671Z,21.09
2023-03-18T10:57:26.701Z,21.09
2023-03-18T11:00:34.064Z,21.11
2023-03-18T11:03:42.199Z,21.11
2023-03-18T11:06:48.280Z,21.12
2023-03-18T11:09:51.114Z,21.13
2023-03-18T11:13:00.046Z,21.13
2023-03-18T11:16:04.488Z,21.15
2023-03-18T11:19:10.216Z,21.15
2023-03-18T11:22:22.314Z,21.16
2023-03-18T11:25:27.295Z,21.18
2023-03-18T11:28:30.952Z,21.17
2023-03-18T11:31:49.605Z,21.18
2023-03-18T11:34:57.269Z,21.19
2023-03-18T11:38:04.251Z,21.20
2023-03-18T11:41:08.627Z,21.20
2023-03-18T11:44:18.650Z,21.22
2023-03-18T11:47:27.129Z,21.23
2023-03-18T11:50:40.515Z,21.25
2023-03-18T11:53:56.736Z,21.26
2023-03-18T11:57:03.113Z,21.27
2023-03-18T12:00:19.888Z,21.27
2023-03-18T12:03:52.457Z,21.27
2023-03-18T12:07:06.692Z,21.27
2023-03-18T12:10:20.210Z,21.29
2023-03-18T12:13:44.985Z,21.27
2023-03-18T12:17:01.274Z,21.28
2023-03-18T12:20:19.936Z,21.28
2023-03-18T12:23:38.373Z,21.29
2023-03-18T12:26:48.828Z,21.30
2023-03-18T12:30:19.476Z,21.31
2023-03-18T12:33:37.008Z,21.30
2023-03-18T12:36:55.159Z,21.30
2023-03-18T12:40:28.392Z,21.29
2023-03-18T12:43:46.780Z,21.29
2023-03-18T12:46:53.985Z,21.29
2023-03-18T12:50:01.176Z,21.30
2023-03-18T12:53:15.428Z,21.28
2023-03-18T12:56:23.763Z,21.29
2023-03-18T12:59:32.871Z,21.30
2023-03-18T13:02:43.520Z,21.30
2023-03-18T13:05:53.049Z,21.31
2023-03-18T13:09:04.309Z,21.31
2023-03-18T13:12:11.558Z,21.30
2023-03-18T13:15:22.187Z,21.31
2023-03-18T13:18:31.115Z,21.29
2023-03-18T13:21:40.955Z,21.29
2023-03-18T13:24:57.406Z,21.30
2023-03-18T13:28:22.922Z,21.30
2023-03-18T13:31:39.048Z,21.28
2023-03-18T13:35:01.557Z,21.30
2023-03-18T13:38:36.373Z,21.30
2023-03-18T13:42:02.609Z,21.30
2023-03-18T13:45:12.992Z,21.31
2023-03-18T13:48:18.325Z,21.31
2023-03-18T13:51:50.925Z,21.30
2023-03-18T13:54:54.145Z,21.29
2023-03-18T13:58:10.502Z,21.29
2023-03-18T14:01:33.298Z,21.30
2023-03-18T14:04:47.333Z,21.29
2023-03-18T14:07:50.550Z,21.29
2023-03-18T14:11:38.587Z,21.29
2023-03-18T14:15:29.951Z,21.30
2023-03-18T14:18:37.030Z,21.30
2023-03-18T14:21:49.146Z,21.30
2023-03-18T14:25:11.498Z,21.30
2023-03-18T14:28:20.956Z,21.30
2023-03-18T14:31:50.288Z,21.28
2023-03-18T14:34:57.559Z,21.28
2023-03-18T14:38:03.729Z,21.25
2023-03-18T14:41:22.379Z,21.27
2023-03-18T14:44:32.555Z,21.25
2023-03-18T14:47:44.355Z,21.25
2023-03-18T14:50:50.260Z,21.26
2023-03-18T14:53:56.076Z,21.26
2023-03-18T14:56:59.206Z,21.27
2023-03-18T15:00:06.572Z,21.27
2023-03-18T15:03:18.888Z,21.28
2023-03-18T15:06:25.446Z,21.25
2023-03-18T15:09:32.442Z,21.25
2023-03-18T15:12:37.252Z,21.24
2023-03-18T15:15:41.499Z,21.25
2023-03-18T15:18:46.359Z,21.24
2023-03-18T15:21:49.554Z,21.24
2023-03-18T15:24:55.092Z,21.24
2023-03-18T15:27:59.380Z,21.24
2023-03-18T15:31:05.048Z,21.25
2023-03-18T15:34:16.581Z,21.25
2023-03-18T15:37:33.668Z,21.24
2023-03-18T15:40:46.086Z,21.25
2023-03-18T15:43:51.520Z,21.25
2023-03-18T15:46:55.941Z,21.23
2023-03-18T15:50:02.150Z,21.23
2023-03-18T15:53:16.771Z,21.22
2023-03-18T15:56:24.940Z,21.21
2023-03-18T15:59:29.544Z,21.20
2023-03-18T16:02:32.408Z,21.18
2023-03-18T16:05:36.940Z,21.19
2023-03-18T16:08:39.790Z,21.18
2023-03-18T16:11:43.605Z,21.19
2023-03-18T16:14:49.173Z,21.18
2023-03-18T16:17:53.524Z,21.16
2023-03-18T16:20:57.769Z,21.14
2023-03-18T16:24:01.411Z,21.14
2023-03-18T16:27:05.261Z,21.13
2023-03-18T16:30:17.730Z,21.12
2023-03-18T16:33:22.463Z,21.11
2023-03-18T16:36:35.076Z,21.12
2023-03-18T16:39:37.953Z,21.12
2023-03-18T16:42:41.429Z,21.13
2023-03-18T16:45:44.719Z,21.16
2023-03-18T16:48:49.685Z,21.16
2023-03-18T16:51:54.596Z,21.18
2023-03-18T16:54:57.942Z,21.18
2023-03-18T16:58:01.651Z,21.19
2023-03-18T17:01:07.142Z,21.20
2023-03-18T17:04:19.273Z,21.21
2023-03-18T17:07:23.487Z,21.21
2023-03-18T17:10:28.161Z,21.21
2023-03-18T17:13:33.971Z,21.22
2023-03-18T17:16:36.832Z,21.23
2023-03-18T17:19:40.099Z,21.23
2023-03-18T17:22:45.165Z,21.25
2023-03-18T17:25:51.001Z,21.25
2023-03-18T17:28:53.978Z,21.25
2023-03-18T17:31:57.735Z,21.26
2023-03-18T17:35:00.776Z,21.26
2023-03-18T17:38:05.783Z,21.27
2023-03-18T17:41:17.164Z,21.27
2023-03-18T17:44:29.648Z,21.26
2023-03-18T17:47:32.847Z,21.27
2023-03-18T17:50:35.897Z,21.27
2023-03-18T17:53:42.367Z,21.27
2023-03-18T17:56:45.425Z,21.28
2023-03-18T17:59:48.595Z,21.29
2023-03-18T18:02:52.211Z,21.29
2023-03-18T18:05:56.026Z,21.29
2023-03-18T18:09:02.298Z,21.29
2023-03-18T18:12:06.359Z,21.27
2023-03-18T18:15:18.083Z,21.28
2023-03-18T18:18:26.713Z,21.27
2023-03-18T18:21:29.712Z,21.28
2023-03-18T18:24:34.480Z,21.27
2023-03-18T18:27:37.298Z,21.28
2023-03-18T18:30:40.329Z,21.28
2023-03-18T18:33:44.212Z,21.30
2023-03-18T18:36:46.994Z,21.31
2023-03-18T18:39:51.192Z,21.30
2023-03-18T18:42:53.983Z,21.31
2023-03-18T18:45:58.651Z,21.30
2023-03-18T18:49:01.893Z,21.31
2023-03-18T18:52:07.156Z,21.30
2023-03-18T18:55:11.889Z,21.31
2023-03-18T18:58:17.690Z,21.29
2023-03-18T19:01:20.957Z,21.29
2023-03-18T19:04:24.450Z,21.29
2023-03-18T19:07:29.343Z,21.31
2023-03-18T19:10:33.670Z,21.32
2023-03-18T19:13:37.683Z,21.32
2023-03-18T19:16:40.687Z,21.32
2023-03-18T19:19:44.899Z,21.31
2023-03-18T19:22:47.705Z,21.32
2023-03-18T19:25:52.437Z,21.31
2023-03-18T19:28:59.256Z,21.32
2023-03-18T19:32:02.409Z,21.31
2023-03-18T19:35:05.844Z,21.31
2023-03-18T19:38:15.454Z,21.30
2023-03-18T19:41:19.854Z,21.31
2023-03-18T19:44:25.033Z,21.31
2023-03-18T19:47:31.249Z,21.32
2023-03-18T19:50:34.088Z,21.33
2023-03-18T19:53:37.114Z,21.31
2023-03-18T19:56:41.550Z,21.33
2023-03-18T19:59:45.791Z,21.32
2023-03-18T20:02:50.808Z,21.32
2023-03-18T20:05:53.600Z,21.32
2023-03-18T20:08:56.416Z,21.33
2023-03-18T20:12:04.675Z,21.32
2023-03-18T20:15:13.498Z,21.32
2023-03-18T20:18:18.107Z,21.32
2023-03-18T20:21:26.504Z,21.33
2023-03-18T20:24:30.377Z,21.33
2023-03-18T20:27:34.569Z,21.33
2023-03-18T20:30:38.891Z,21.31
2023-03-18T20:33:41.737Z,21.32
2023-03-18T20:36:44.623Z,21.31
2023-03-18T20:39:47.496Z,21.30
2023-03-18T20:42:52.700Z,21.30
2023-03-18T20:45:56.796Z,21.30
2023-03-18T20:48:59.556Z,21.31
2023-03-18T20:52:02.562Z,21.31
2023-03-18T20:55:20.623Z,21.31
2023-03-18T20:58:26.385Z,21.32
2023-03-18T21:01:29.311Z,21.31
2023-03-18T21:04:32.112Z,21.32
2023-03-18T21:07:34.902Z,21.31
2023-03-18T21:10:37.768Z,21.31
2023-03-18T21:13:43.578Z,21.31
2023-03-18T21:16:46.478Z,21.32
2023-03-18T21:19:50.001Z,21.32
2023-03-18T21:22:53.443Z,21.33
2023-03-18T21:25:57.622Z,21.33
2023-03-18T21:29:01.732Z,21.35
2023-03-18T21:32:04.954Z,21.36
2023-03-18T21:35:08.768Z,21.37
2023-03-18T21:38:11.876Z,21.38
2023-03-18T21:41:20.794Z,21.38
2023-03-18T21:44:25.132Z,21.39
2023-03-18T21:47:28.063Z,21.39
2023-03-18T21:50:30.815Z,21.39
2023-03-18T21:53:33.769Z,21.39
2023-03-18T21:56:36.629Z,21.39
2023-03-18T21:59:40.778Z,21.39
2023-03-18T22:02:44.024Z,21.39
2023-03-18T22:05:48.786Z,21.40
2023-03-18T22:08:52.167Z,21.41
2023-03-18T22:11:55.052Z,21.41
2023-03-18T22:15:00.825Z,21.42
2023-03-18T22:18:03.830Z,21.43
2023-03-18T22:21:12.923Z,21.41
2023-03-18T22:24:15.774Z,21.42
2023-03-18T22:27:20.614Z,21.42
2023-03-18T22:30:25.391Z,21.41
2023-03-18T22:33:31.323Z,21.41
2023-03-18T22:36:34.239Z,21.41
2023-03-18T22:39:37.216Z,21.41
2023-03-18T22:42:40.045Z,21.42
2023-03-18T22:45:44.338Z,21.41
2023-03-18T22:48:47.278Z,21.42
2023-03-18T22:51:51.137Z,21.42
2023-03-18T22:54:58.615Z,21.42
2023-03-18T22:58:01.459Z,21.41
2023-03-18T23:01:06.173Z,21.42
2023-03-18T23:04:11.376Z,21.41
2023-03-18T23:07:31.140Z,21.41
2023-03-18T23:10:34.283Z,21.41
2023-03-18T23:13:39.165Z,21.40
2023-03-18T23:16:43.346Z,21.40
2023-03-18T23:19:46.483Z,21.40
2023-03-18T23:22:49.295Z,21.40
2023-03-18T23:25:52.764Z,21.41
2023-03-18T23:28:55.520Z,21.40
2023-03-18T23:31:59.755Z,21.41
2023-03-18T23:35:03.959Z,21.39
2023-03-18T23:38:07.456Z,21.39
2023-03-18T23:41:10.289Z,21.38
2023-03-18T23:44:13.174Z,21.38
2023-03-18T23:52:07.244Z,21.36
2023-03-18T23:55:30.503Z,21.35
2023-03-18T23:58:33.651Z,21.36
